createdAt,value
2023-05-14T00:00:31.220Z,72.7941
2023-05-14T00:01:33.830Z,72.6049
2023-05-14T00:02:36.499Z,72.3819
2023-05-14T00:03:39.080Z,72.8811
2023-05-14T00:04:41.751Z,72.9042
2023-05-14T00:05:44.233Z,72.7763
2023-05-14T00:06:46.874Z,73.0497
2023-05-14T00:09:33.349Z,73.8337
2023-05-14T00:10:35.948Z,74.0374
2023-05-14T00:11:38.569Z,74.0703
2023-05-14T00:12:41.176Z,73.8744
2023-05-14T00:13:43.837Z,74.0714
2023-05-14T00:14:46.381Z,74.0834
2023-05-14T00:15:49.259Z,73.8312
2023-05-14T00:16:51.607Z,73.8356
2023-05-14T00:17:54.312Z,73.8598
2023-05-14T00:18:56.859Z,73.4477
2023-05-14T00:19:59.465Z,73.2774
2023-05-14T00:21:02.056Z,73.3390
2023-05-14T00:22:04.777Z,72.8279
2023-05-14T00:23:07.279Z,72.9179
2023-05-14T00:24:09.898Z,73.3837
2023-05-14T00:25:12.480Z,73.6025
2023-05-14T00:26:15.156Z,73.5946
2023-05-14T00:27:17.701Z,74.0588
2023-05-14T00:28:20.328Z,74.1618
2023-05-14T00:29:22.907Z,74.4187
2023-05-14T00:30:25.719Z,74.0479
2023-05-14T00:31:28.165Z,73.7548
2023-05-14T00:32:30.791Z,73.2729
2023-05-14T00:33:33.370Z,73.4673
2023-05-14T00:34:35.986Z,73.3438
2023-05-14T00:35:38.556Z,73.3517
2023-05-14T00:36:41.405Z,73.7349
2023-05-14T00:37:43.764Z,73.8354
2023-05-14T00:38:46.409Z,73.6724
2023-05-14T00:39:48.989Z,73.7772
2023-05-14T00:40:51.639Z,73.8998
2023-05-14T00:41:54.195Z,73.7878
2023-05-14T00:42:56.929Z,73.7018
2023-05-14T00:43:59.426Z,73.6904
2023-05-14T00:45:02.037Z,73.6220
2023-05-14T00:46:04.619Z,73.6733
2023-05-14T00:49:01.968Z,74.1480
2023-05-14T00:50:04.610Z,74.2179
2023-05-14T00:51:07.175Z,74.2981
2023-05-14T00:52:09.812Z,74.3749
2023-05-14T00:53:12.398Z,74.5542
2023-05-14T00:54:15.060Z,75.1089
2023-05-14T00:55:17.618Z,75.8071
2023-05-14T00:56:20.249Z,76.1890
2023-05-14T00:57:22.831Z,76.1558
2023-05-14T00:58:25.481Z,76.3158
2023-05-14T00:59:28.065Z,76.5862
2023-05-14T01:00:30.717Z,76.7553
2023-05-14T01:01:33.309Z,76.6579
2023-05-14T01:02:35.967Z,76.4686
2023-05-14T01:03:38.584Z,76.4025
2023-05-14T01:04:41.137Z,76.1750
2023-05-14T01:05:43.738Z,75.8634
2023-05-14T01:06:46.349Z,76.0234
2023-05-14T01:07:48.925Z,76.1923
2023-05-14T01:08:51.556Z,76.1874
2023-05-14T01:09:54.149Z,75.8832
2023-05-14T01:10:56.765Z,75.6109
2023-05-14T01:11:59.362Z,75.4424
2023-05-14T01:13:01.987Z,75.2590
2023-05-14T01:14:04.605Z,74.9399
2023-05-14T01:15:07.192Z,75.0832
2023-05-14T01:16:10.292Z,74.9012
2023-05-14T01:17:12.407Z,74.3200
2023-05-14T01:18:14.989Z,74.2664
2023-05-14T01:19:17.676Z,74.5168
2023-05-14T01:20:20.224Z,74.6881
2023-05-14T01:21:22.840Z,74.6063
2023-05-14T01:22:25.441Z,74.2931
2023-05-14T01:23:28.052Z,74.2512
2023-05-14T01:24:30.645Z,74.5221
2023-05-14T01:25:33.266Z,74.6574
2023-05-14T01:26:35.842Z,75.0325
2023-05-14T01:27:38.468Z,74.9314
2023-05-14T01:28:41.070Z,74.9635
2023-05-14T01:29:43.704Z,75.0784
2023-05-14T01:30:46.267Z,75.3664
2023-05-14T01:31:48.938Z,75.4548
2023-05-14T01:32:51.674Z,75.4677
2023-05-14T01:33:54.115Z,75.4025
2023-05-14T01:34:56.705Z,75.4778
2023-05-14T01:35:59.337Z,75.6247
2023-05-14T01:37:02.014Z,75.7160
2023-05-14T01:38:04.538Z,75.7101
2023-05-14T01:39:07.153Z,75.5178
2023-05-14T01:40:09.826Z,75.3924
2023-05-14T01:41:12.359Z,75.5429
2023-05-14T01:42:14.946Z,75.6906
2023-05-14T01:43:17.589Z,75.9021
2023-05-14T01:44:20.149Z,76.1335
2023-05-14T01:45:22.772Z,76.2101
2023-05-14T01:46:25.389Z,76.3758
2023-05-14T01:47:27.993Z,76.4195
2023-05-14T01:48:30.588Z,76.4885
2023-05-14T01:49:33.206Z,76.7058
2023-05-14T01:50:35.798Z,76.7674
2023-05-14T01:51:38.424Z,76.8436
2023-05-14T01:52:41.009Z,77.0092
2023-05-14T01:53:43.630Z,77.0632
2023-05-14T01:54:46.235Z,77.1812
2023-05-14T01:55:48.866Z,77.2203
2023-05-14T01:56:51.450Z,77.3004
2023-05-14T01:57:54.077Z,77.2083
2023-05-14T01:58:56.654Z,77.2938
2023-05-14T01:59:59.290Z,77.5194
2023-05-14T02:01:01.947Z,77.5210
2023-05-14T02:02:04.502Z,77.5147
2023-05-14T02:03:07.165Z,77.5292
2023-05-14T02:04:09.761Z,77.5312
2023-05-14T02:05:12.310Z,77.4892
2023-05-14T02:06:14.942Z,77.3080
2023-05-14T02:07:17.526Z,77.3072
2023-05-14T02:08:20.159Z,77.9542
2023-05-14T02:09:22.750Z,78.0206
2023-05-14T02:10:25.649Z,78.1090
2023-05-14T02:11:27.975Z,77.9285
2023-05-14T02:12:30.614Z,77.8740
2023-05-14T02:13:33.195Z,78.1788
2023-05-14T02:14:35.836Z,77.8756
2023-05-14T02:15:38.441Z,77.6548
2023-05-14T02:16:41.036Z,77.5101
2023-05-14T02:17:43.672Z,77.4352
2023-05-14T02:18:46.278Z,77.3035
2023-05-14T02:21:32.751Z,77.2827
2023-05-14T02:22:35.346Z,77.2111
2023-05-14T02:23:41.856Z,77.4262
2023-05-14T02:24:40.566Z,77.6976
2023-05-14T02:25:43.307Z,77.5894
2023-05-14T02:26:45.978Z,77.5337
2023-05-14T02:27:48.442Z,77.6126
2023-05-14T02:28:51.026Z,77.6781
2023-05-14T02:29:53.708Z,77.5809
2023-05-14T02:30:56.260Z,77.5645
2023-05-14T02:31:59.037Z,77.5955
2023-05-14T02:33:01.526Z,77.6698
2023-05-14T02:34:04.118Z,77.4502
2023-05-14T02:35:06.728Z,77.2382
2023-05-14T02:36:09.318Z,77.1532
2023-05-14T02:37:11.904Z,77.3816
2023-05-14T02:38:14.538Z,77.5831
2023-05-14T02:39:17.128Z,77.4977
2023-05-14T02:40:19.767Z,77.4566
2023-05-14T02:41:22.352Z,77.6664
2023-05-14T02:42:24.982Z,77.8564
2023-05-14T02:43:27.573Z,77.8922
2023-05-14T02:44:30.450Z,77.6269
2023-05-14T02:45:32.806Z,77.1775
2023-05-14T02:46:35.569Z,76.8542
2023-05-14T02:47:38.429Z,76.8402
2023-05-14T02:48:40.652Z,76.9785
2023-05-14T02:49:43.249Z,77.2916
2023-05-14T02:50:45.888Z,77.5313
2023-05-14T02:51:48.457Z,77.4857
2023-05-14T02:52:51.119Z,77.2658
2023-05-14T02:53:53.675Z,77.4232
2023-05-14T02:54:56.315Z,77.4933
2023-05-14T02:55:58.894Z,77.6182
2023-05-14T02:57:01.530Z,77.9116
2023-05-14T02:58:04.116Z,77.9683
2023-05-14T02:59:06.768Z,78.0018
2023-05-14T03:00:09.366Z,78.0655
2023-05-14T03:01:11.994Z,78.1829
2023-05-14T03:02:14.581Z,78.2573
2023-05-14T03:03:17.283Z,78.1556
2023-05-14T03:04:19.788Z,78.1199
2023-05-14T03:05:22.424Z,78.0763
2023-05-14T03:06:25.024Z,78.2225
2023-05-14T03:07:27.655Z,78.3538
2023-05-14T03:08:30.256Z,78.3501
2023-05-14T03:09:32.873Z,78.4085
2023-05-14T03:10:35.464Z,78.4756
2023-05-14T03:11:38.100Z,78.6065
2023-05-14T03:12:40.712Z,78.6912
2023-05-14T03:13:43.326Z,78.6493
2023-05-14T03:14:46.036Z,78.6948
2023-05-14T03:15:48.563Z,78.6942
2023-05-14T03:16:51.175Z,78.7664
2023-05-14T03:17:53.863Z,79.0040
2023-05-14T03:18:56.417Z,78.9835
2023-05-14T03:19:59.023Z,78.9841
2023-05-14T03:21:01.601Z,78.9173
2023-05-14T03:22:04.246Z,78.7499
2023-05-14T03:23:06.833Z,78.9297
2023-05-14T03:24:09.765Z,79.3344
2023-05-14T03:25:12.051Z,79.5126
2023-05-14T03:26:14.689Z,79.4832
2023-05-14T03:27:17.274Z,79.2545
2023-05-14T03:28:19.920Z,79.1862
2023-05-14T03:29:22.512Z,79.4237
2023-05-14T03:30:25.383Z,79.5880
2023-05-14T03:31:27.761Z,79.7401
2023-05-14T03:32:30.393Z,79.8266
2023-05-14T03:33:32.972Z,79.8736
2023-05-14T03:34:35.596Z,80.0431
2023-05-14T03:35:38.186Z,80.1680
2023-05-14T03:36:40.836Z,80.1303
2023-05-14T03:37:43.424Z,80.0887
2023-05-14T03:38:46.062Z,80.0573
2023-05-14T03:39:48.659Z,79.6487
2023-05-14T03:40:51.317Z,79.2425
2023-05-14T03:41:53.877Z,79.1513
2023-05-14T03:42:56.520Z,79.1472
2023-05-14T03:43:59.148Z,79.2941
2023-05-14T03:45:01.752Z,79.2770
2023-05-14T03:46:04.359Z,79.3706
2023-05-14T03:47:06.979Z,79.5288
2023-05-14T03:48:09.661Z,79.6615
2023-05-14T03:49:12.226Z,79.6855
2023-05-14T03:50:14.835Z,79.5450
2023-05-14T03:51:17.476Z,79.5637
2023-05-14T03:52:20.036Z,79.5587
2023-05-14T03:53:22.783Z,79.5175
2023-05-14T03:54:25.274Z,79.6744
2023-05-14T03:55:27.914Z,79.9337
2023-05-14T03:56:30.504Z,79.9871
2023-05-14T03:57:33.153Z,79.9702
2023-05-14T03:58:35.764Z,80.0814
2023-05-14T03:59:38.352Z,80.0170
2023-05-14T04:00:40.952Z,80.1800
2023-05-14T04:01:43.596Z,80.5175
2023-05-14T04:02:46.236Z,80.5275
2023-05-14T04:03:48.981Z,80.3531
2023-05-14T04:04:51.519Z,80.2769
2023-05-14T04:05:54.043Z,80.2413
2023-05-14T04:06:56.654Z,80.2666
2023-05-14T04:07:59.283Z,80.3213
2023-05-14T04:09:01.886Z,80.2404
2023-05-14T04:10:04.831Z,80.3741
2023-05-14T04:11:07.117Z,80.6397
2023-05-14T04:12:09.750Z,80.7416
2023-05-14T04:13:12.407Z,80.8822
2023-05-14T04:14:14.993Z,80.9138
2023-05-14T04:16:47.214Z,80.8645
2023-05-14T04:17:49.779Z,81.2067
2023-05-14T04:18:52.400Z,81.5711
2023-05-14T04:19:54.937Z,81.6479
2023-05-14T04:20:57.578Z,81.4996
2023-05-14T04:22:00.196Z,81.4497
2023-05-14T04:23:02.798Z,81.3973
2023-05-14T04:24:05.430Z,81.3957
2023-05-14T04:25:08.021Z,81.0994
2023-05-14T04:26:10.658Z,81.0192
2023-05-14T04:27:13.249Z,80.9660
2023-05-14T04:28:15.898Z,81.0023
2023-05-14T04:29:18.476Z,80.7651
2023-05-14T04:30:21.317Z,80.2018
2023-05-14T04:31:23.949Z,80.1717
2023-05-14T04:32:26.365Z,80.3094
2023-05-14T04:33:28.946Z,80.5570
2023-05-14T04:34:31.571Z,80.6012
2023-05-14T04:35:34.180Z,80.4393
2023-05-14T04:36:36.797Z,80.5234
2023-05-14T04:37:39.401Z,80.5677
2023-05-14T04:38:42.029Z,80.6844
2023-05-14T04:39:44.615Z,80.8752
2023-05-14T04:40:47.271Z,80.8924
2023-05-14T04:41:49.845Z,80.8198
2023-05-14T04:42:52.502Z,80.6825
2023-05-14T04:43:55.318Z,80.6738
2023-05-14T04:44:57.714Z,80.8186
2023-05-14T04:46:00.382Z,80.8789
2023-05-14T04:47:02.931Z,81.1340
2023-05-14T04:48:05.560Z,81.0618
2023-05-14T04:49:08.164Z,80.7940
2023-05-14T04:50:10.756Z,80.4987
2023-05-14T04:51:13.399Z,80.5258
2023-05-14T04:52:15.973Z,80.7459
2023-05-14T04:53:18.732Z,80.7082
2023-05-14T04:54:21.227Z,80.6835
2023-05-14T04:55:23.832Z,80.6904
2023-05-14T04:56:26.411Z,80.3925
2023-05-14T04:57:29.073Z,80.2471
2023-05-14T04:58:33.739Z,80.1241
2023-05-14T04:59:34.270Z,80.0714
2023-05-14T05:00:36.869Z,80.1811
2023-05-14T05:01:39.617Z,80.3708
2023-05-14T05:02:42.167Z,80.5990
2023-05-14T05:03:44.789Z,80.6000
2023-05-14T05:04:47.342Z,80.5545
2023-05-14T05:05:49.949Z,80.4776
2023-05-14T05:06:52.528Z,80.3315
2023-05-14T05:07:55.166Z,80.4104
2023-05-14T05:08:58.066Z,80.4231
2023-05-14T05:10:00.396Z,80.4056
2023-05-14T05:11:02.979Z,80.4598
2023-05-14T05:12:05.650Z,80.4194
2023-05-14T05:13:08.195Z,80.2759
2023-05-14T05:14:10.843Z,80.2234
2023-05-14T05:16:23.662Z,79.6440
2023-05-14T05:17:26.314Z,79.7922
2023-05-14T05:18:28.882Z,79.9265
2023-05-14T05:19:42.514Z,79.7961
2023-05-14T05:20:34.093Z,79.4546
2023-05-14T05:21:36.725Z,79.4468
2023-05-14T05:22:39.311Z,79.5307
2023-05-14T05:23:41.958Z,79.6354
2023-05-14T05:24:44.540Z,79.7417
2023-05-14T05:25:47.170Z,79.8057
2023-05-14T05:26:49.758Z,79.8487
2023-05-14T05:27:52.401Z,79.5767
2023-05-14T05:28:55.006Z,79.6439
2023-05-14T05:29:57.640Z,79.6861
2023-05-14T05:31:00.274Z,79.8943
2023-05-14T05:32:02.856Z,79.9218
2023-05-14T05:33:05.508Z,79.6307
2023-05-14T05:34:08.070Z,79.6187
2023-05-14T05:35:10.664Z,79.4746
2023-05-14T05:36:13.293Z,79.4747
2023-05-14T05:37:15.883Z,79.6939
2023-05-14T05:38:18.545Z,80.0213
2023-05-14T05:39:21.111Z,79.9753
2023-05-14T05:40:23.951Z,79.9891
2023-05-14T05:41:26.328Z,79.9580
2023-05-14T05:42:28.965Z,79.7178
2023-05-14T05:43:31.573Z,79.9030
2023-05-14T05:44:34.194Z,79.9177
2023-05-14T05:45:36.777Z,80.0339
2023-05-14T05:46:39.547Z,79.6828
2023-05-14T05:47:42.039Z,79.2538
2023-05-14T05:48:44.643Z,79.6176
2023-05-14T05:49:47.233Z,79.8422
2023-05-14T05:50:49.873Z,79.8129
2023-05-14T05:51:52.498Z,79.7130
2023-05-14T05:52:55.087Z,79.9550
2023-05-14T05:53:57.698Z,80.0973
2023-05-14T05:55:00.325Z,79.8314
2023-05-14T05:56:02.890Z,79.6126
2023-05-14T05:57:05.523Z,79.1037
2023-05-14T05:58:08.114Z,78.7846
2023-05-14T05:59:10.762Z,78.2279
2023-05-14T06:00:13.387Z,77.5381
2023-05-14T06:01:15.980Z,77.2243
2023-05-14T06:02:18.587Z,76.6110
2023-05-14T06:03:21.214Z,76.9718
2023-05-14T06:04:23.758Z,77.1444
2023-05-14T06:05:26.440Z,76.9465
2023-05-14T06:06:28.982Z,77.0037
2023-05-14T06:07:31.609Z,76.8191
2023-05-14T06:08:34.195Z,76.7536
2023-05-14T06:09:36.837Z,76.2950
2023-05-14T06:10:39.423Z,76.4726
2023-05-14T06:11:42.062Z,76.5060
2023-05-14T06:12:44.624Z,75.9746
2023-05-14T06:13:47.267Z,75.5121
2023-05-14T06:14:49.861Z,75.0882
2023-05-14T06:15:52.479Z,75.1897
2023-05-14T06:16:55.095Z,75.1021
2023-05-14T06:17:57.775Z,75.0642
2023-05-14T06:19:00.408Z,75.4996
2023-05-14T06:20:02.899Z,75.5860
2023-05-14T06:21:05.753Z,75.9983
2023-05-14T06:22:08.124Z,76.0585
2023-05-14T06:23:10.765Z,75.4869
2023-05-14T06:24:13.336Z,75.2093
2023-05-14T06:25:15.978Z,75.1017
2023-05-14T06:26:18.570Z,74.9562
2023-05-14T06:27:21.178Z,75.0436
2023-05-14T06:28:23.767Z,75.3183
2023-05-14T06:29:26.406Z,75.2682
2023-05-14T06:30:29.015Z,74.9386
2023-05-14T06:31:31.651Z,74.8015
2023-05-14T06:32:34.206Z,74.7389
2023-05-14T06:33:36.822Z,74.9920
2023-05-14T06:34:39.407Z,75.2079
2023-05-14T06:35:42.038Z,75.8220
2023-05-14T06:36:44.627Z,76.0118
2023-05-14T06:37:47.235Z,75.9365
2023-05-14T06:38:49.824Z,75.6905
2023-05-14T06:39:52.452Z,76.5455
2023-05-14T06:40:55.032Z,76.5405
2023-05-14T06:41:57.658Z,76.7251
2023-05-14T06:43:00.243Z,77.1590
2023-05-14T06:44:02.864Z,77.1410
2023-05-14T06:45:05.444Z,76.7299
2023-05-14T06:46:08.073Z,76.7526
2023-05-14T06:47:10.655Z,76.9740
2023-05-14T06:48:13.429Z,76.3154
2023-05-14T06:49:15.908Z,75.4087
2023-05-14T06:50:18.515Z,76.7760
2023-05-14T06:51:21.088Z,75.3971
2023-05-14T06:52:23.727Z,74.2451
2023-05-14T06:53:26.285Z,74.1323
2023-05-14T06:54:28.908Z,73.2655
2023-05-14T06:55:31.489Z,71.8434
2023-05-14T06:56:34.113Z,71.4908
2023-05-14T06:57:38.528Z,71.6408
2023-05-14T06:58:39.314Z,71.5279
2023-05-14T06:59:41.892Z,72.4466
2023-05-14T07:00:44.550Z,71.9591
2023-05-14T07:01:47.162Z,70.7177
2023-05-14T07:02:49.757Z,70.1659
2023-05-14T07:03:52.374Z,69.4752
2023-05-14T07:04:54.988Z,69.7433
2023-05-14T07:05:57.545Z,70.1478
2023-05-14T07:07:00.171Z,70.9341
2023-05-14T07:08:02.728Z,71.5068
2023-05-14T07:09:05.379Z,70.6120
2023-05-14T07:10:07.930Z,70.3816
2023-05-14T07:11:10.549Z,70.5608
2023-05-14T07:12:13.131Z,70.1139
2023-05-14T07:13:15.763Z,69.9146
2023-05-14T07:14:18.334Z,69.5087
2023-05-14T07:15:20.948Z,69.9994
2023-05-14T07:16:23.540Z,70.2015
2023-05-14T07:17:26.186Z,69.2212
2023-05-14T07:18:28.751Z,69.2271
2023-05-14T07:19:31.330Z,69.8910
2023-05-14T07:20:33.918Z,69.8897
2023-05-14T07:21:36.596Z,69.6279
2023-05-14T07:22:39.100Z,69.2449
2023-05-14T07:23:41.720Z,69.3907
2023-05-14T07:24:44.308Z,69.2326
2023-05-14T07:25:46.928Z,69.1018
2023-05-14T07:26:49.524Z,69.1231
2023-05-14T07:27:52.134Z,69.3429
2023-05-14T07:28:54.845Z,69.4703
2023-05-14T07:29:57.372Z,69.9567
2023-05-14T07:30:59.992Z,69.5188
2023-05-14T07:32:02.568Z,69.8749
2023-05-14T07:33:05.209Z,69.7337
2023-05-14T07:34:07.752Z,68.9865
2023-05-14T07:35:10.360Z,68.8559
2023-05-14T07:36:12.963Z,69.5860
2023-05-14T07:37:15.538Z,69.3732
2023-05-14T07:38:18.285Z,68.7677
2023-05-14T07:39:20.764Z,68.9371
2023-05-14T07:40:23.683Z,68.8951
2023-05-14T07:41:25.955Z,68.7662
2023-05-14T07:42:35.944Z,68.3039
2023-05-14T07:43:31.159Z,67.9362
2023-05-14T07:44:33.785Z,67.5133
2023-05-14T07:45:36.342Z,67.7131
2023-05-14T07:46:38.965Z,68.0537
2023-05-14T07:47:41.641Z,68.1139
2023-05-14T07:48:44.226Z,68.5394
2023-05-14T07:49:46.753Z,69.5203
2023-05-14T07:50:49.382Z,67.8442
2023-05-14T07:51:51.949Z,67.3926
2023-05-14T07:52:54.594Z,66.9311
2023-05-14T07:53:57.150Z,67.4939
2023-05-14T07:54:59.778Z,67.3773
2023-05-14T07:56:02.340Z,66.9347
2023-05-14T07:57:04.967Z,66.3271
2023-05-14T07:58:07.542Z,66.7443
2023-05-14T07:59:10.168Z,67.3703
2023-05-14T08:00:12.740Z,65.8287
2023-05-14T08:01:15.362Z,64.6216
2023-05-14T08:02:17.991Z,64.9606
2023-05-14T08:03:20.634Z,64.8871
2023-05-14T08:06:21.314Z,64.0422
2023-05-14T08:07:23.930Z,64.8576
2023-05-14T08:08:26.505Z,65.3601
2023-05-14T08:09:29.127Z,64.1945
2023-05-14T08:10:31.763Z,63.8389
2023-05-14T08:11:34.333Z,64.1745
2023-05-14T08:12:36.908Z,64.1602
2023-05-14T08:13:39.538Z,64.0344
2023-05-14T08:14:42.150Z,62.9928
2023-05-14T08:15:44.762Z,62.5771
2023-05-14T08:16:47.356Z,62.2492
2023-05-14T08:17:50.024Z,62.8525
2023-05-14T08:18:52.548Z,61.9017
2023-05-14T08:19:55.139Z,61.2149
2023-05-14T08:20:57.906Z,62.5009
2023-05-14T08:22:00.341Z,62.5812
2023-05-14T08:23:02.905Z,62.6211
2023-05-14T08:25:34.792Z,63.1498
2023-05-14T08:26:37.409Z,62.7927
2023-05-14T08:27:39.994Z,62.9521
2023-05-14T08:28:42.637Z,62.2404
2023-05-14T08:29:45.187Z,62.2372
2023-05-14T08:30:47.819Z,61.9606
2023-05-14T08:31:50.398Z,63.4551
2023-05-14T08:32:53.095Z,63.1194
2023-05-14T08:33:55.573Z,63.5561
2023-05-14T08:34:58.207Z,62.8800
2023-05-14T08:36:00.775Z,61.8852
2023-05-14T08:37:03.407Z,60.0460
2023-05-14T08:38:06.001Z,59.3180
2023-05-14T08:39:08.714Z,60.4664
2023-05-14T08:40:11.183Z,60.0357
2023-05-14T08:41:13.799Z,59.8981
2023-05-14T08:42:16.368Z,60.0576
2023-05-14T08:43:18.984Z,59.3227
2023-05-14T08:44:21.560Z,59.3467
2023-05-14T08:45:24.171Z,58.5875
2023-05-14T08:46:26.751Z,58.7248
2023-05-14T08:47:29.378Z,58.6183
2023-05-14T08:48:32.095Z,58.4956
2023-05-14T08:49:34.573Z,59.0516
2023-05-14T08:50:37.134Z,59.5612
2023-05-14T08:51:39.744Z,58.6829
2023-05-14T08:52:42.323Z,57.6306
2023-05-14T08:53:44.948Z,58.5447
2023-05-14T08:54:47.511Z,58.9693
2023-05-14T08:55:50.122Z,58.4945
2023-05-14T08:56:52.702Z,59.0082
2023-05-14T08:57:55.316Z,59.8986
2023-05-14T08:58:57.872Z,59.6558
2023-05-14T09:00:00.510Z,59.6569
2023-05-14T09:01:03.063Z,59.1466
2023-05-14T09:02:05.766Z,56.5168
2023-05-14T09:03:08.305Z,56.0503
2023-05-14T09:04:10.954Z,55.8895
2023-05-14T09:05:13.480Z,55.7070
2023-05-14T09:06:16.056Z,56.3244
2023-05-14T09:07:18.621Z,55.4284
2023-05-14T09:08:21.339Z,55.4472
2023-05-14T09:09:23.814Z,56.0507
2023-05-14T09:10:27.022Z,55.8934
2023-05-14T09:11:28.995Z,56.6162
2023-05-14T09:12:31.618Z,57.1946
2023-05-14T09:13:34.193Z,57.1463
2023-05-14T09:14:36.808Z,57.4304
2023-05-14T09:15:39.372Z,57.7691
2023-05-14T09:16:42.041Z,58.4616
2023-05-14T09:17:44.589Z,58.2720
2023-05-14T09:18:47.233Z,58.8146
2023-05-14T09:19:49.753Z,58.7841
2023-05-14T09:20:52.404Z,59.4230
2023-05-14T09:21:54.949Z,59.9988
2023-05-14T09:22:57.575Z,59.4552
2023-05-14T09:24:00.164Z,59.3487
2023-05-14T09:25:02.770Z,59.2412
2023-05-14T09:26:05.359Z,58.5407
2023-05-14T09:27:07.952Z,58.7299
2023-05-14T09:28:10.544Z,58.7813
2023-05-14T09:29:13.170Z,59.4591
2023-05-14T09:31:49.876Z,59.0320
2023-05-14T09:32:52.420Z,59.2731
2023-05-14T09:35:19.401Z,58.6606
2023-05-14T09:36:22.016Z,57.9610
2023-05-14T09:37:24.591Z,58.8905
2023-05-14T09:38:27.213Z,58.8214
2023-05-14T09:39:29.796Z,58.5185
2023-05-14T09:40:32.424Z,59.4768
2023-05-14T09:41:35.069Z,59.8401
2023-05-14T09:42:37.617Z,59.2112
2023-05-14T09:43:40.183Z,59.6779
2023-05-14T09:44:42.809Z,60.7241
2023-05-14T09:45:45.382Z,61.5110
2023-05-14T09:46:48.071Z,62.3567
2023-05-14T09:47:50.687Z,61.3324
2023-05-14T09:48:53.210Z,61.1114
2023-05-14T09:49:55.816Z,61.3991
2023-05-14T09:50:58.498Z,61.4121
2023-05-14T09:52:01.064Z,62.0340
2023-05-14T09:53:03.600Z,62.0200
2023-05-14T09:54:06.169Z,61.9135
2023-05-14T09:55:08.791Z,62.2223
2023-05-14T09:56:11.379Z,62.0223
2023-05-14T09:57:14.242Z,61.6899
2023-05-14T09:58:16.573Z,61.6656
2023-05-14T09:59:19.181Z,62.1664
2023-05-14T10:00:22.206Z,61.4568
2023-05-14T10:01:24.423Z,61.0686
2023-05-14T10:02:26.960Z,61.2046
2023-05-14T10:03:29.573Z,61.8735
2023-05-14T10:04:32.163Z,62.2659
2023-05-14T10:05:34.798Z,60.9708
2023-05-14T10:06:37.327Z,61.5037
2023-05-14T10:07:39.973Z,61.0285
2023-05-14T10:08:42.524Z,60.0408
2023-05-14T10:09:45.310Z,60.2149
2023-05-14T10:10:47.716Z,59.5804
2023-05-14T10:11:50.333Z,58.5528
2023-05-14T10:12:52.920Z,59.5488
2023-05-14T10:13:55.523Z,59.9779
2023-05-14T10:15:00.211Z,60.1036
2023-05-14T10:16:00.698Z,59.4035
2023-05-14T10:17:03.407Z,60.1361
2023-05-14T10:18:05.990Z,60.1571
2023-05-14T10:19:08.560Z,60.1263
2023-05-14T10:20:11.111Z,58.6689
2023-05-14T10:21:13.720Z,57.9998
2023-05-14T10:22:16.446Z,57.5039
2023-05-14T10:23:18.886Z,57.5866
2023-05-14T10:24:21.460Z,57.9946
2023-05-14T10:25:24.086Z,57.9337
2023-05-14T10:26:26.645Z,59.5149
2023-05-14T10:27:29.258Z,60.5185
2023-05-14T10:28:31.858Z,59.0415
2023-05-14T10:29:34.465Z,59.1106
2023-05-14T10:30:37.026Z,59.6306
2023-05-14T10:31:39.782Z,59.9142
2023-05-14T10:32:42.331Z,59.0300
2023-05-14T10:33:44.831Z,59.6615
2023-05-14T10:34:47.397Z,59.1928
2023-05-14T10:35:50.039Z,58.8426
2023-05-14T10:36:52.586Z,58.9474
2023-05-14T10:37:55.218Z,59.3122
2023-05-14T10:38:57.788Z,60.7769
2023-05-14T10:40:00.397Z,61.5839
2023-05-14T10:41:02.980Z,62.4768
2023-05-14T10:43:49.249Z,61.0983
2023-05-14T10:44:51.877Z,61.0078
2023-05-14T10:45:54.444Z,61.0856
2023-05-14T10:48:11.907Z,60.9487
2023-05-14T10:49:14.468Z,60.3538
2023-05-14T10:50:17.057Z,59.5193
2023-05-14T10:51:19.711Z,59.3602
2023-05-14T10:52:22.274Z,58.9309
2023-05-14T10:53:24.827Z,58.0363
2023-05-14T10:54:27.472Z,57.8557
2023-05-14T10:55:30.036Z,58.9988
2023-05-14T10:56:32.653Z,59.1614
2023-05-14T10:57:35.225Z,59.6156
2023-05-14T10:58:37.854Z,58.2668
2023-05-14T10:59:40.436Z,58.1244
2023-05-14T11:00:43.048Z,57.1842
2023-05-14T11:01:45.666Z,57.4621
2023-05-14T11:02:48.293Z,58.0129
2023-05-14T11:03:50.825Z,56.6693
2023-05-14T11:04:53.431Z,55.7301
2023-05-14T11:05:55.993Z,55.2279
2023-05-14T11:06:58.625Z,55.0738
2023-05-14T11:08:01.189Z,55.7045
2023-05-14T11:09:03.831Z,56.3562
2023-05-14T11:10:06.406Z,56.1082
2023-05-14T11:11:09.010Z,56.5693
2023-05-14T11:12:11.582Z,56.5766
2023-05-14T11:13:14.207Z,57.3808
2023-05-14T11:14:16.786Z,57.1275
2023-05-14T11:15:19.410Z,56.8642
2023-05-14T11:16:24.007Z,56.0372
2023-05-14T11:17:24.632Z,55.8878
2023-05-14T11:18:27.191Z,55.6810
2023-05-14T11:19:29.780Z,55.0969
2023-05-14T11:20:32.357Z,54.9106
2023-05-14T11:21:35.003Z,54.8810
2023-05-14T11:22:37.545Z,54.1373
2023-05-14T11:23:40.157Z,54.3873
2023-05-14T11:24:42.733Z,55.1974
2023-05-14T11:25:45.389Z,54.8348
2023-05-14T11:26:47.928Z,54.4584
2023-05-14T11:27:50.578Z,54.9618
2023-05-14T11:28:53.141Z,56.1972
2023-05-14T11:29:55.780Z,55.7984
2023-05-14T11:30:58.327Z,55.4759
2023-05-14T11:32:00.994Z,55.2839
2023-05-14T11:34:47.180Z,56.1606
2023-05-14T11:35:49.758Z,55.6308
2023-05-14T11:36:52.381Z,54.9403
2023-05-14T11:37:54.953Z,54.9200
2023-05-14T11:38:57.567Z,54.4549
2023-05-14T11:40:00.201Z,54.3725
2023-05-14T11:41:02.795Z,54.4325
2023-05-14T11:42:05.339Z,55.3438
2023-05-14T11:43:07.965Z,54.4427
2023-05-14T11:44:10.544Z,54.9903
2023-05-14T11:45:13.240Z,54.7687
2023-05-14T11:46:15.808Z,54.8006
2023-05-14T11:47:18.412Z,54.5953
2023-05-14T11:48:20.942Z,54.8310
2023-05-14T11:49:23.580Z,55.0921
2023-05-14T11:50:26.374Z,55.2846
2023-05-14T11:51:28.764Z,55.5067
2023-05-14T11:52:31.343Z,56.1528
2023-05-14T11:53:33.962Z,55.9856
2023-05-14T11:56:01.001Z,55.8856
2023-05-14T11:57:03.798Z,55.2887
2023-05-14T11:58:06.193Z,55.0987
2023-05-14T11:59:08.768Z,55.1498
2023-05-14T12:00:11.414Z,55.2174
2023-05-14T12:01:13.981Z,55.5750
2023-05-14T12:02:16.614Z,55.3538
2023-05-14T12:03:19.333Z,55.7768
2023-05-14T12:04:21.877Z,55.1763
2023-05-14T12:05:24.375Z,54.7696
2023-05-14T12:06:27.067Z,54.2929
2023-05-14T12:07:29.590Z,53.7965
2023-05-14T12:08:32.198Z,54.5455
2023-05-14T12:09:34.783Z,55.1719
2023-05-14T12:10:37.399Z,54.5197
2023-05-14T12:11:39.987Z,54.3025
2023-05-14T12:12:42.595Z,54.7751
2023-05-14T12:13:45.187Z,52.3977
2023-05-14T12:14:47.904Z,51.5352
2023-05-14T12:15:50.672Z,52.0799
2023-05-14T12:16:53.003Z,52.7470
2023-05-14T12:17:55.601Z,53.0346
2023-05-14T12:18:58.244Z,52.4202
2023-05-14T12:20:00.769Z,53.0015
2023-05-14T12:21:03.405Z,53.9102
2023-05-14T12:22:05.990Z,52.8284
2023-05-14T12:23:08.605Z,53.8681
2023-05-14T12:24:11.164Z,56.1864
2023-05-14T12:25:14.134Z,55.1247
2023-05-14T12:26:16.426Z,55.1111
2023-05-14T12:27:18.981Z,54.6611
2023-05-14T12:28:21.555Z,52.9974
2023-05-14T12:29:24.180Z,54.4021
2023-05-14T12:30:26.761Z,53.4795
2023-05-14T12:31:29.433Z,54.7184
2023-05-14T12:32:32.012Z,53.9941
2023-05-14T12:33:34.597Z,52.5972
2023-05-14T12:34:37.683Z,53.5062
2023-05-14T12:35:39.785Z,53.6314
2023-05-14T12:36:42.351Z,53.3936
2023-05-14T12:37:44.989Z,54.6742
2023-05-14T12:38:47.543Z,53.9134
2023-05-14T12:39:50.192Z,52.0533
2023-05-14T12:40:53.203Z,53.8948
2023-05-14T12:41:55.368Z,54.8003
2023-05-14T12:42:57.936Z,52.7237
2023-05-14T12:44:00.581Z,51.4760
2023-05-14T12:45:03.145Z,51.6268
2023-05-14T12:46:05.769Z,52.3276
2023-05-14T12:47:08.374Z,54.5429
2023-05-14T12:48:11.017Z,53.2029
2023-05-14T12:49:13.531Z,52.4316
2023-05-14T12:50:16.349Z,52.6620
2023-05-14T12:51:18.728Z,52.8693
2023-05-14T12:52:36.158Z,53.6990
2023-05-14T12:53:23.967Z,52.8808
2023-05-14T12:54:26.532Z,52.3337
2023-05-14T12:55:29.107Z,52.1129
2023-05-14T12:56:31.724Z,53.0487
2023-05-14T12:57:34.294Z,52.7717